White Owl, South Dakota
Current Conditions -  °F | °C
As of 4:58 PM on Monday 22 Dec 2014 (Local Time) from KRCA Reporting Station
Light Snow Light Snow  
Wind Chill: 15°   Ceiling: 1800
Heat Index: 30°   Visibility: 1mi
Dew Point: 27°   Wind: 31mph
Humidity: 88%   Direction: 340°NNW
Pressure: 29.6"   Gusts: 47mph
Location:  44.59°N, 102.43°W
Report Text: KRCA 222358Z 34027G41KT 1SM -SN BLSN FEW011 OVC018 M01/M03 A2960 RMK AO2A PK WND 33047/08 VIS 2 RWY13 SLP045 P0000 60000 T10091026 10063 21009 52031 $
Loading
Personal Weather Stations






























Interactive Weather Map New forecast layout! Learn more

10-Day Weather Forecast

Advertisements
Track Severe Weather on mobile